Terminal Aerodrome Forecast
Issued by NWS

Home | Current Version | Previous Version | Text Only | Print | Product List | Glossary On
Versions: 1 2 3 4 5 6 7 8 9 10 11 12
000
FTUS45 KREV 162300
TAFMMH
TAF
KMMH 162320Z 1700/1724 31012G18KT P6SM FEW180
     FM170300 VRB05KT P6SM FEW180
     FM171500 12006KT P6SM FEW180
     FM172000 31012G22KT P6SM SCT180
      AMD NOT SKED 1702/1714=

USA.gov is the U.S. government's official web portal to all federal, state and local government web resources and services.